sensor_id;sensor_type;location;lat;lon;timestamp;pressure;altitude;pressure_sealevel;temperature;humidity
11415;BME280;5763;42.714;23.244;2023-06-01T00:00:13;94740.19;;;17.46;94.91
11415;BME280;5763;42.714;23.244;2023-06-01T00:02:40;94740.94;;;17.46;94.85
11415;BME280;5763;42.714;23.244;2023-06-01T00:05:07;94734.88;;;17.42;95.38
11415;BME280;5763;42.714;23.244;2023-06-01T00:07:34;94720.97;;;17.36;95.84
11415;BME280;5763;42.714;23.244;2023-06-01T00:10:01;94709.34;;;17.27;96.70
11415;BME280;5763;42.714;23.244;2023-06-01T00:12:29;94720.75;;;17.40;96.45
11415;BME280;5763;42.714;23.244;2023-06-01T00:14:55;94722.22;;;17.35;96.88
11415;BME280;5763;42.714;23.244;2023-06-01T00:17:23;94715.75;;;17.39;96.83
11415;BME280;5763;42.714;23.244;2023-06-01T00:19:49;94716.00;;;17.41;96.64
11415;BME280;5763;42.714;23.244;2023-06-01T00:22:18;94719.00;;;17.42;96.46
11415;BME280;5763;42.714;23.244;2023-06-01T00:24:45;94715.53;;;17.48;96.29
11415;BME280;5763;42.714;23.244;2023-06-01T00:27:12;94716.94;;;17.37;96.63
11415;BME280;5763;42.714;23.244;2023-06-01T00:29:40;94718.19;;;17.31;97.31
11415;BME280;5763;42.714;23.244;2023-06-01T00:32:07;94722.00;;;17.39;96.42
11415;BME280;5763;42.714;23.244;2023-06-01T00:34:33;94715.19;;;17.34;96.40
11415;BME280;5763;42.714;23.244;2023-06-01T00:37:00;94716.44;;;17.33;96.85
11415;BME280;5763;42.714;23.244;2023-06-01T00:39:27;94695.44;;;17.16;96.18
11415;BME280;5763;42.714;23.244;2023-06-01T00:41:54;94723.25;;;17.38;95.45
11415;BME280;5763;42.714;23.244;2023-06-01T00:44:20;94724.22;;;17.35;95.59
11415;BME280;5763;42.714;23.244;2023-06-01T00:46:49;94726.50;;;17.36;95.67
11415;BME280;5763;42.714;23.244;2023-06-01T00:49:17;94724.28;;;17.41;95.81
11415;BME280;5763;42.714;23.244;2023-06-01T00:51:44;94726.81;;;17.44;96.39
11415;BME280;5763;42.714;23.244;2023-06-01T00:54:11;94720.63;;;17.23;97.53
11415;BME280;5763;42.714;23.244;2023-06-01T00:56:38;94720.63;;;17.23;98.39
11415;BME280;5763;42.714;23.244;2023-06-01T00:59:05;94718.38;;;17.27;98.42
11415;BME280;5763;42.714;23.244;2023-06-01T01:01:32;94716.88;;;17.26;98.71
11415;BME280;5763;42.714;23.244;2023-06-01T01:04:00;94726.41;;;17.25;99.26
11415;BME280;5763;42.714;23.244;2023-06-01T01:06:33;94724.38;;;17.20;99.42
11415;BME280;5763;42.714;23.244;2023-06-01T01:09:10;94728.09;;;17.17;99.75
11415;BME280;5763;42.714;23.244;2023-06-01T01:11:43;94727.00;;;17.04;100.00
11415;BME280;5763;42.714;23.244;2023-06-01T01:14:17;94726.91;;;16.93;100.00
11415;BME280;5763;42.714;23.244;2023-06-01T01:16:50;94723.03;;;16.79;100.00
11415;BME280;5763;42.714;23.244;2023-06-01T01:19:35;94724.28;;;16.78;100.00
11415;BME280;5763;42.714;23.244;2023-06-01T01:22:20;94724.97;;;16.73;100.00
11415;BME280;5763;42.714;23.244;2023-06-01T01:25:05;94729.81;;;16.78;100.00
11415;BME280;5763;42.714;23.244;2023-06-01T01:27:41;94725.72;;;16.74;100.00
11415;BME280;5763;42.714;23.244;2023-06-01T01:30:11;94723.97;;;16.76;100.00
11415;BME280;5763;42.714;23.244;2023-06-01T01:32:39;94721.94;;;16.71;100.00
11415;BME280;5763;42.714;23.244;2023-06-01T01:35:07;94720.19;;;16.74;100.00
11415;BME280;5763;42.714;23.244;2023-06-01T01:37:34;94722.25;;;16.79;100.00
11415;BME280;5763;42.714;23.244;2023-06-01T01:40:01;94723.28;;;16.81;100.00
11415;BME280;5763;42.714;23.244;2023-06-01T01:42:28;94726.97;;;16.73;100.00
11415;BME280;5763;42.714;23.244;2023-06-01T01:44:55;94723.19;;;16.70;100.00
11415;BME280;5763;42.714;23.244;2023-06-01T01:47:31;94724.97;;;16.73;100.00
11415;BME280;5763;42.714;23.244;2023-06-01T01:50:06;94727.19;;;16.69;100.00
11415;BME280;5763;42.714;23.244;2023-06-01T01:52:38;94732.88;;;16.60;100.00
11415;BME280;5763;42.714;23.244;2023-06-01T01:55:07;94728.34;;;16.58;100.00
11415;BME280;5763;42.714;23.244;2023-06-01T01:57:35;94731.38;;;16.59;100.00
11415;BME280;5763;42.714;23.244;2023-06-01T02:00:03;94729.31;;;16.54;100.00
11415;BME280;5763;42.714;23.244;2023-06-01T02:02:33;94733.31;;;16.53;100.00
11415;BME280;5763;42.714;23.244;2023-06-01T02:05:00;94727.31;;;16.55;100.00
11415;BME280;5763;42.714;23.244;2023-06-01T02:07:26;94734.84;;;16.54;100.00
11415;BME280;5763;42.714;23.244;2023-06-01T02:09:53;94727.09;;;16.58;100.00
11415;BME280;5763;42.714;23.244;2023-06-01T02:12:20;94732.06;;;16.54;100.00
11415;BME280;5763;42.714;23.244;2023-06-01T02:14:46;94732.50;;;16.48;100.00
11415;BME280;5763;42.714;23.244;2023-06-01T02:17:13;94740.25;;;16.43;100.00
11415;BME280;5763;42.714;23.244;2023-06-01T02:19:43;94739.09;;;16.35;100.00
11415;BME280;5763;42.714;23.244;2023-06-01T02:22:10;94736.56;;;16.32;100.00
11415;BME280;5763;42.714;23.244;2023-06-01T02:24:37;94735.31;;;16.33;100.00
11415;BME280;5763;42.714;23.244;2023-06-01T02:27:04;94736.00;;;16.28;100.00
11415;BME280;5763;42.714;23.244;2023-06-01T02:29:31;94739.75;;;16.25;100.00
11415;BME280;5763;42.714;23.244;2023-06-01T02:31:57;94739.41;;;16.17;100.00
11415;BME280;5763;42.714;23.244;2023-06-01T02:34:24;94727.41;;;16.20;100.00
11415;BME280;5763;42.714;23.244;2023-06-01T02:36:52;94742.88;;;16.12;100.00
11415;BME280;5763;42.714;23.244;2023-06-01T02:39:21;94740.38;;;16.14;100.00
11415;BME280;5763;42.714;23.244;2023-06-01T02:41:48;94735.41;;;16.18;100.00
11415;BME280;5763;42.714;23.244;2023-06-01T02:44:14;94734.66;;;16.18;100.00
11415;BME280;5763;42.714;23.244;2023-06-01T02:46:42;94739.97;;;16.21;100.00
11415;BME280;5763;42.714;23.244;2023-06-01T02:49:08;94748.47;;;16.18;100.00
11415;BME280;5763;42.714;23.244;2023-06-01T02:51:35;94745.22;;;16.19;100.00
11415;BME280;5763;42.714;23.244;2023-06-01T02:54:03;94744.94;;;16.17;100.00
11415;BME280;5763;42.714;23.244;2023-06-01T02:56:30;94751.16;;;16.12;100.00
11415;BME280;5763;42.714;23.244;2023-06-01T02:58:57;94735.38;;;16.13;100.00
11415;BME280;5763;42.714;23.244;2023-06-01T03:01:23;94741.16;;;16.15;100.00
11415;BME280;5763;42.714;23.244;2023-06-01T03:03:51;94736.41;;;16.15;100.00
11415;BME280;5763;42.714;23.244;2023-06-01T03:06:18;94740.66;;;16.16;100.00
11415;BME280;5763;42.714;23.244;2023-06-01T03:08:47;94734.66;;;16.18;100.00
11415;BME280;5763;42.714;23.244;2023-06-01T03:11:15;94743.00;;;16.23;100.00
11415;BME280;5763;42.714;23.244;2023-06-01T03:13:41;94735.97;;;16.22;100.00
11415;BME280;5763;42.714;23.244;2023-06-01T03:16:08;94718.50;;;16.11;100.00
11415;BME280;5763;42.714;23.244;2023-06-01T03:18:35;94748.88;;;16.31;100.00
11415;BME280;5763;42.714;23.244;2023-06-01T03:21:02;94748.94;;;16.36;100.00
11415;BME280;5763;42.714;23.244;2023-06-01T03:23:29;94747.91;;;16.34;100.00
11415;BME280;5763;42.714;23.244;2023-06-01T03:25:55;94747.41;;;16.35;100.00
11415;BME280;5763;42.714;23.244;2023-06-01T03:28:23;94748.06;;;16.45;100.00
11415;BME280;5763;42.714;23.244;2023-06-01T03:30:50;94744.03;;;16.46;100.00
11415;BME280;5763;42.714;23.244;2023-06-01T03:33:17;94744.63;;;16.35;100.00
11415;BME280;5763;42.714;23.244;2023-06-01T03:35:44;94745.41;;;16.36;100.00
11415;BME280;5763;42.714;23.244;2023-06-01T03:38:12;94745.88;;;16.34;100.00
11415;BME280;5763;42.714;23.244;2023-06-01T03:40:39;94754.47;;;16.36;100.00
11415;BME280;5763;42.714;23.244;2023-06-01T03:43:06;94744.47;;;16.39;100.00
11415;BME280;5763;42.714;23.244;2023-06-01T03:45:34;94756.66;;;16.32;100.00
11415;BME280;5763;42.714;23.244;2023-06-01T03:48:01;94750.84;;;16.30;100.00
11415;BME280;5763;42.714;23.244;2023-06-01T03:50:28;94757.28;;;16.22;100.00
11415;BME280;5763;42.714;23.244;2023-06-01T03:52:54;94761.50;;;16.17;100.00
11415;BME280;5763;42.714;23.244;2023-06-01T03:55:21;94766.25;;;16.17;100.00
11415;BME280;5763;42.714;23.244;2023-06-01T03:57:48;94757.72;;;16.15;100.00
11415;BME280;5763;42.714;23.244;2023-06-01T04:00:16;94759.88;;;16.05;100.00
11415;BME280;5763;42.714;23.244;2023-06-01T04:02:51;94759.09;;;16.05;100.00
11415;BME280;5763;42.714;23.244;2023-06-01T04:05:19;94760.56;;;16.00;100.00
11415;BME280;5763;42.714;23.244;2023-06-01T04:07:46;94759.31;;;16.01;100.00
11415;BME280;5763;42.714;23.244;2023-06-01T04:10:13;94751.72;;;15.96;100.00
11415;BME280;5763;42.714;23.244;2023-06-01T04:12:42;94756.25;;;15.99;100.00
11415;BME280;5763;42.714;23.244;2023-06-01T04:15:10;94758.06;;;16.02;100.00
11415;BME280;5763;42.714;23.244;2023-06-01T04:17:38;94769.66;;;16.06;100.00
11415;BME280;5763;42.714;23.244;2023-06-01T04:20:09;94769.66;;;16.06;100.00
11415;BME280;5763;42.714;23.244;2023-06-01T04:22:36;94772.44;;;16.06;100.00
11415;BME280;5763;42.714;23.244;2023-06-01T04:25:05;94768.69;;;16.09;100.00
11415;BME280;5763;42.714;23.244;2023-06-01T04:27:33;94765.72;;;16.13;100.00
11415;BME280;5763;42.714;23.244;2023-06-01T04:30:03;94771.78;;;16.17;100.00
11415;BME280;5763;42.714;23.244;2023-06-01T04:32:33;94764.81;;;16.21;100.00
11415;BME280;5763;42.714;23.244;2023-06-01T04:35:00;94767.16;;;16.28;100.00
11415;BME280;5763;42.714;23.244;2023-06-01T04:37:32;94769.72;;;16.32;100.00
11415;BME280;5763;42.714;23.244;2023-06-01T04:39:59;94774.75;;;16.33;100.00
11415;BME280;5763;42.714;23.244;2023-06-01T04:42:26;94778.66;;;16.42;100.00
11415;BME280;5763;42.714;23.244;2023-06-01T04:44:55;94770.63;;;16.43;100.00
11415;BME280;5763;42.714;23.244;2023-06-01T04:47:23;94782.56;;;16.55;100.00
11415;BME280;5763;42.714;23.244;2023-06-01T04:49:50;94785.13;;;16.58;100.00
11415;BME280;5763;42.714;23.244;2023-06-01T04:52:17;94792.72;;;16.63;100.00
11415;BME280;5763;42.714;23.244;2023-06-01T04:54:46;94792.28;;;16.70;100.00
11415;BME280;5763;42.714;23.244;2023-06-01T04:57:13;94783.81;;;16.54;100.00
11415;BME280;5763;42.714;23.244;2023-06-01T04:59:40;94785.44;;;16.66;100.00
11415;BME280;5763;42.714;23.244;2023-06-01T05:02:07;94784.91;;;16.62;100.00
11415;BME280;5763;42.714;23.244;2023-06-01T05:04:34;94791.59;;;16.55;100.00
11415;BME280;5763;42.714;23.244;2023-06-01T05:07:01;94784.56;;;16.54;100.00
11415;BME280;5763;42.714;23.244;2023-06-01T05:09:27;94791.53;;;16.70;100.00
11415;BME280;5763;42.714;23.244;2023-06-01T05:11:55;94784.63;;;16.85;100.00
11415;BME280;5763;42.714;23.244;2023-06-01T05:14:22;94785.66;;;16.88;100.00
11415;BME280;5763;42.714;23.244;2023-06-01T05:16:49;94787.81;;;17.04;100.00
11415;BME280;5763;42.714;23.244;2023-06-01T05:19:16;94786.41;;;17.14;100.00
11415;BME280;5763;42.714;23.244;2023-06-01T05:21:42;94799.81;;;17.21;100.00
11415;BME280;5763;42.714;23.244;2023-06-01T05:24:09;94787.81;;;17.29;100.00
11415;BME280;5763;42.714;23.244;2023-06-01T05:26:36;94785.06;;;17.35;100.00
11415;BME280;5763;42.714;23.244;2023-06-01T05:29:04;94790.94;;;17.42;100.00
11415;BME280;5763;42.714;23.244;2023-06-01T05:31:31;94784.69;;;17.48;100.00
11415;BME280;5763;42.714;23.244;2023-06-01T05:33:57;94785.41;;;17.42;100.00
11415;BME280;5763;42.714;23.244;2023-06-01T05:36:24;94788.00;;;17.52;100.00
11415;BME280;5763;42.714;23.244;2023-06-01T05:38:51;94786.97;;;17.49;100.00
11415;BME280;5763;42.714;23.244;2023-06-01T05:41:18;94791.31;;;17.56;100.00
11415;BME280;5763;42.714;23.244;2023-06-01T05:43:44;94794.94;;;17.67;100.00
11415;BME280;5763;42.714;23.244;2023-06-01T05:46:12;94789.41;;;17.73;100.00
11415;BME280;5763;42.714;23.244;2023-06-01T05:48:39;94793.47;;;17.77;100.00
11415;BME280;5763;42.714;23.244;2023-06-01T05:51:06;94794.03;;;17.87;99.87
11415;BME280;5763;42.714;23.244;2023-06-01T05:53:33;94792.84;;;17.98;98.74
11415;BME280;5763;42.714;23.244;2023-06-01T05:56:00;94792.91;;;18.09;98.51
11415;BME280;5763;42.714;23.244;2023-06-01T05:58:26;94790.66;;;18.13;98.38
11415;BME280;5763;42.714;23.244;2023-06-01T06:00:53;94794.88;;;18.03;98.46
11415;BME280;5763;42.714;23.244;2023-06-01T06:03:21;94795.06;;;17.89;99.69
11415;BME280;5763;42.714;23.244;2023-06-01T06:05:48;94802.59;;;17.83;100.00
11415;BME280;5763;42.714;23.244;2023-06-01T06:08:15;94798.47;;;17.73;100.00
11415;BME280;5763;42.714;23.244;2023-06-01T06:10:42;94762.13;;;17.55;100.00
11415;BME280;5763;42.714;23.244;2023-06-01T06:13:09;94797.59;;;17.92;100.00
11415;BME280;5763;42.714;23.244;2023-06-01T06:15:36;94800.69;;;18.06;100.00
11415;BME280;5763;42.714;23.244;2023-06-01T06:18:03;94797.50;;;18.23;99.40
11415;BME280;5763;42.714;23.244;2023-06-01T06:20:31;94794.28;;;18.31;97.68
11415;BME280;5763;42.714;23.244;2023-06-01T06:22:57;94797.25;;;18.22;98.10
11415;BME280;5763;42.714;23.244;2023-06-01T06:25:24;94797.94;;;18.06;98.90
11415;BME280;5763;42.714;23.244;2023-06-01T06:27:51;94799.41;;;18.01;99.30
11415;BME280;5763;42.714;23.244;2023-06-01T06:30:18;94801.16;;;17.98;99.98
11415;BME280;5763;42.714;23.244;2023-06-01T06:32:45;94792.59;;;18.02;99.74
11415;BME280;5763;42.714;23.244;2023-06-01T06:35:11;94800.00;;;18.16;99.71
11415;BME280;5763;42.714;23.244;2023-06-01T06:37:41;94801.28;;;18.21;98.44
11415;BME280;5763;42.714;23.244;2023-06-01T06:40:09;94804.19;;;18.43;97.27
11415;BME280;5763;42.714;23.244;2023-06-01T06:42:36;94802.97;;;18.49;95.16
11415;BME280;5763;42.714;23.244;2023-06-01T06:45:04;94770.09;;;18.31;95.83
11415;BME280;5763;42.714;23.244;2023-06-01T06:47:31;94799.91;;;18.47;95.29
11415;BME280;5763;42.714;23.244;2023-06-01T06:49:58;94801.13;;;18.41;95.11
11415;BME280;5763;42.714;23.244;2023-06-01T06:52:24;94798.88;;;18.45;94.11
11415;BME280;5763;42.714;23.244;2023-06-01T06:54:52;94793.38;;;18.50;93.54
11415;BME280;5763;42.714;23.244;2023-06-01T06:57:19;94790.56;;;18.45;92.98
11415;BME280;5763;42.714;23.244;2023-06-01T06:59:46;94805.00;;;18.54;91.37
11415;BME280;5763;42.714;23.244;2023-06-01T07:02:12;94797.38;;;18.44;92.82
11415;BME280;5763;42.714;23.244;2023-06-01T07:04:39;94802.69;;;18.42;93.89
11415;BME280;5763;42.714;23.244;2023-06-01T07:07:06;94804.22;;;18.54;93.69
11415;BME280;5763;42.714;23.244;2023-06-01T07:09:33;94804.22;;;18.54;92.34
11415;BME280;5763;42.714;23.244;2023-06-01T07:12:01;94799.91;;;18.47;94.40
11415;BME280;5763;42.714;23.244;2023-06-01T07:14:28;94798.41;;;18.46;95.22
11415;BME280;5763;42.714;23.244;2023-06-01T07:16:55;94795.16;;;18.59;95.07
11415;BME280;5763;42.714;23.244;2023-06-01T07:19:21;94797.22;;;18.69;94.83
11415;BME280;5763;42.714;23.244;2023-06-01T07:21:49;94794.94;;;18.73;94.09
11415;BME280;5763;42.714;23.244;2023-06-01T07:24:17;94795.47;;;18.72;94.44
11415;BME280;5763;42.714;23.244;2023-06-01T07:26:44;94791.16;;;18.71;93.90
11415;BME280;5763;42.714;23.244;2023-06-01T07:29:12;94795.47;;;18.72;94.79
11415;BME280;5763;42.714;23.244;2023-06-01T07:31:40;94788.66;;;18.78;95.71
11415;BME280;5763;42.714;23.244;2023-06-01T07:34:07;94777.09;;;18.91;95.02
11415;BME280;5763;42.714;23.244;2023-06-01T07:36:33;94779.66;;;19.00;95.16
11415;BME280;5763;42.714;23.244;2023-06-01T07:39:02;94778.41;;;19.06;93.91
11415;BME280;5763;42.714;23.244;2023-06-01T07:41:31;94776.63;;;19.09;92.48
11415;BME280;5763;42.714;23.244;2023-06-01T07:43:58;94784.19;;;19.03;94.02
11415;BME280;5763;42.714;23.244;2023-06-01T07:46:26;94777.91;;;19.08;94.42
11415;BME280;5763;42.714;23.244;2023-06-01T07:48:53;94770.06;;;19.12;94.64
11415;BME280;5763;42.714;23.244;2023-06-01T07:51:19;94774.66;;;19.26;93.30
11415;BME280;5763;42.714;23.244;2023-06-01T07:53:46;94770.88;;;19.45;93.32
11415;BME280;5763;42.714;23.244;2023-06-01T07:56:13;94756.22;;;19.50;93.07
11415;BME280;5763;42.714;23.244;2023-06-01T07:58:40;94767.09;;;19.65;91.45
11415;BME280;5763;42.714;23.244;2023-06-01T08:01:07;94763.03;;;19.66;90.84
11415;BME280;5763;42.714;23.244;2023-06-01T08:03:35;94764.03;;;19.74;89.11
11415;BME280;5763;42.714;23.244;2023-06-01T08:06:03;94762.25;;;19.87;89.15
11415;BME280;5763;42.714;23.244;2023-06-01T08:08:30;94767.28;;;19.89;89.37
11415;BME280;5763;42.714;23.244;2023-06-01T08:10:57;94761.47;;;19.98;88.56
11415;BME280;5763;42.714;23.244;2023-06-01T08:13:23;94772.31;;;20.12;86.53
11415;BME280;5763;42.714;23.244;2023-06-01T08:15:51;94761.69;;;20.22;84.67
11415;BME280;5763;42.714;23.244;2023-06-01T08:18:18;94758.09;;;20.32;84.77
11415;BME280;5763;42.714;23.244;2023-06-01T08:20:48;94752.75;;;20.45;84.75
11415;BME280;5763;42.714;23.244;2023-06-01T08:23:15;94764.53;;;20.62;83.02
11415;BME280;5763;42.714;23.244;2023-06-01T08:25:43;94758.19;;;20.67;83.46
11415;BME280;5763;42.714;23.244;2023-06-01T08:28:09;94752.31;;;20.76;82.62
11415;BME280;5763;42.714;23.244;2023-06-01T08:30:36;94725.81;;;20.70;83.67
11415;BME280;5763;42.714;23.244;2023-06-01T08:33:03;94748.75;;;20.81;82.95
11415;BME280;5763;42.714;23.244;2023-06-01T08:35:30;94740.16;;;20.90;82.17
11415;BME280;5763;42.714;23.244;2023-06-01T08:38:00;94749.41;;;21.04;80.29
11415;BME280;5763;42.714;23.244;2023-06-01T08:40:26;94750.84;;;21.16;79.72
11415;BME280;5763;42.714;23.244;2023-06-01T08:42:57;94746.78;;;21.17;79.57
11415;BME280;5763;42.714;23.244;2023-06-01T08:45:26;94616.50;;;20.45;77.96
11415;BME280;5763;42.714;23.244;2023-06-01T08:47:53;94598.91;;;20.32;78.09
11415;BME280;5763;42.714;23.244;2023-06-01T08:50:21;94643.47;;;20.56;77.46
11415;BME280;5763;42.714;23.244;2023-06-01T08:52:49;94648.78;;;20.59;77.74
11415;BME280;5763;42.714;23.244;2023-06-01T08:55:21;94754.25;;;21.62;76.05
11415;BME280;5763;42.714;23.244;2023-06-01T08:57:48;94693.84;;;21.52;76.53
11415;BME280;5763;42.714;23.244;2023-06-01T09:00:17;94701.38;;;21.57;75.28
11415;BME280;5763;42.714;23.244;2023-06-01T09:02:44;94625.88;;;21.12;72.51
11415;BME280;5763;42.714;23.244;2023-06-01T09:05:12;94654.75;;;21.39;70.81
11415;BME280;5763;42.714;23.244;2023-06-01T09:07:39;94692.91;;;21.68;69.91
11415;BME280;5763;42.714;23.244;2023-06-01T09:10:07;94597.75;;;21.40;67.55
11415;BME280;5763;42.714;23.244;2023-06-01T09:12:37;94779.53;;;22.47;64.50
11415;BME280;5763;42.714;23.244;2023-06-01T09:15:08;94727.00;;;22.70;63.77
11415;BME280;5763;42.714;23.244;2023-06-01T09:17:36;94653.16;;;22.34;63.42
11415;BME280;5763;42.714;23.244;2023-06-01T09:20:03;94749.72;;;22.98;64.57
11415;BME280;5763;42.714;23.244;2023-06-01T09:22:41;94622.09;;;22.43;62.70
11415;BME280;5763;42.714;23.244;2023-06-01T09:25:09;94715.06;;;23.25;61.81
11415;BME280;5763;42.714;23.244;2023-06-01T09:27:47;94712.72;;;23.42;62.85
11415;BME280;5763;42.714;23.244;2023-06-01T09:30:16;94731.69;;;23.62;62.92
11415;BME280;5763;42.714;23.244;2023-06-01T09:32:44;94567.16;;;22.88;61.15
11415;BME280;5763;42.714;23.244;2023-06-01T09:35:16;94677.13;;;23.87;62.75
11415;BME280;5763;42.714;23.244;2023-06-01T09:37:54;94654.56;;;23.85;59.74
11415;BME280;5763;42.714;23.244;2023-06-01T09:40:22;94691.78;;;24.19;58.36
11415;BME280;5763;42.714;23.244;2023-06-01T09:42:50;94693.09;;;24.31;59.28
11415;BME280;5763;42.714;23.244;2023-06-01T09:45:20;94676.41;;;24.38;58.46
11415;BME280;5763;42.714;23.244;2023-06-01T09:47:47;94689.94;;;24.60;56.69
11415;BME280;5763;42.714;23.244;2023-06-01T09:50:33;94694.22;;;24.74;57.36
11415;BME280;5763;42.714;23.244;2023-06-01T09:53:01;94670.38;;;24.81;56.14
11415;BME280;5763;42.714;23.244;2023-06-01T09:55:28;94621.28;;;24.59;57.53
11415;BME280;5763;42.714;23.244;2023-06-01T09:58:20;94611.56;;;24.73;58.35
11415;BME280;5763;42.714;23.244;2023-06-01T10:00:48;94550.66;;;24.53;57.59
11415;BME280;5763;42.714;23.244;2023-06-01T10:03:17;94632.69;;;25.36;54.20
11415;BME280;5763;42.714;23.244;2023-06-01T10:05:45;94632.22;;;25.45;53.12
11415;BME280;5763;42.714;23.244;2023-06-01T10:08:13;94643.59;;;25.67;52.62
11415;BME280;5763;42.714;23.244;2023-06-01T10:10:43;94651.72;;;25.78;52.67
11415;BME280;5763;42.714;23.244;2023-06-01T10:13:11;94649.66;;;25.79;51.16
11415;BME280;5763;42.714;23.244;2023-06-01T10:15:40;94634.59;;;25.61;48.76
11415;BME280;5763;42.714;23.244;2023-06-01T10:18:07;94662.75;;;25.76;48.50
11415;BME280;5763;42.714;23.244;2023-06-01T10:20:36;94603.22;;;25.22;49.39
11415;BME280;5763;42.714;23.244;2023-06-01T10:23:05;94514.97;;;24.87;53.40
11415;BME280;5763;42.714;23.244;2023-06-01T10:25:40;94545.72;;;25.00;53.92
11415;BME280;5763;42.714;23.244;2023-06-01T10:28:10;94534.72;;;24.82;54.33
11415;BME280;5763;42.714;23.244;2023-06-01T10:30:42;94528.25;;;24.87;55.22
11415;BME280;5763;42.714;23.244;2023-06-01T10:33:10;94579.66;;;25.38;53.25
11415;BME280;5763;42.714;23.244;2023-06-01T10:36:01;94521.41;;;24.75;48.77
11415;BME280;5763;42.714;23.244;2023-06-01T10:38:31;94607.94;;;25.27;44.19
11415;BME280;5763;42.714;23.244;2023-06-01T10:41:26;94664.09;;;25.21;42.31
11415;BME280;5763;42.714;23.244;2023-06-01T10:43:54;94576.41;;;24.39;44.96
11415;BME280;5763;42.714;23.244;2023-06-01T10:46:36;94679.34;;;24.79;43.61
11415;BME280;5763;42.714;23.244;2023-06-01T10:49:04;94653.34;;;24.45;44.65
11415;BME280;5763;42.714;23.244;2023-06-01T10:51:31;94532.03;;;23.24;46.38
11415;BME280;5763;42.714;23.244;2023-06-01T10:54:26;94637.47;;;23.62;47.74
11415;BME280;5763;42.714;23.244;2023-06-01T10:57:21;94644.22;;;23.54;50.97
11415;BME280;5763;42.714;23.244;2023-06-01T11:00:11;94631.31;;;23.38;53.86
11415;BME280;5763;42.714;23.244;2023-06-01T11:02:50;94531.53;;;22.62;56.00
11415;BME280;5763;42.714;23.244;2023-06-01T11:05:40;94562.59;;;22.72;57.84
11415;BME280;5763;42.714;23.244;2023-06-01T11:11:16;94552.28;;;22.67;58.83
11415;BME280;5763;42.714;23.244;2023-06-01T11:14:08;94607.16;;;23.09;59.37
11415;BME280;5763;42.714;23.244;2023-06-01T11:16:37;94493.78;;;22.11;59.15
11415;BME280;5763;42.714;23.244;2023-06-01T11:19:06;94599.94;;;23.13;60.01
11415;BME280;5763;42.714;23.244;2023-06-01T11:21:37;94583.44;;;23.15;58.80
11415;BME280;5763;42.714;23.244;2023-06-01T11:24:07;94606.34;;;23.27;57.19
11415;BME280;5763;42.714;23.244;2023-06-01T11:26:38;94519.59;;;22.80;57.46
11415;BME280;5763;42.714;23.244;2023-06-01T11:29:08;94429.72;;;22.24;54.76
11415;BME280;5763;42.714;23.244;2023-06-01T11:31:38;94531.84;;;22.90;54.45
11415;BME280;5763;42.714;23.244;2023-06-01T11:34:08;94602.41;;;23.35;56.16
11415;BME280;5763;42.714;23.244;2023-06-01T11:36:39;94513.91;;;22.86;57.51
11415;BME280;5763;42.714;23.244;2023-06-01T11:39:19;94535.88;;;23.21;56.90
11415;BME280;5763;42.714;23.244;2023-06-01T11:41:48;94545.13;;;23.42;52.78
11415;BME280;5763;42.714;23.244;2023-06-01T11:44:16;94574.34;;;23.67;52.05
11415;BME280;5763;42.714;23.244;2023-06-01T11:46:54;94504.69;;;23.17;51.88
11415;BME280;5763;42.714;23.244;2023-06-01T11:49:23;94533.31;;;23.36;51.29
11415;BME280;5763;42.714;23.244;2023-06-01T11:51:50;94530.09;;;23.45;50.68
11415;BME280;5763;42.714;23.244;2023-06-01T11:54:22;94443.50;;;22.93;49.96
11415;BME280;5763;42.714;23.244;2023-06-01T11:56:50;94467.78;;;22.98;47.72
11415;BME280;5763;42.714;23.244;2023-06-01T11:59:18;94595.88;;;24.11;47.14
11415;BME280;5763;42.714;23.244;2023-06-01T12:01:46;94595.28;;;24.25;45.61
11415;BME280;5763;42.714;23.244;2023-06-01T12:04:14;94599.66;;;24.34;44.64
11415;BME280;5763;42.714;23.244;2023-06-01T12:06:42;94606.28;;;24.10;42.29
11415;BME280;5763;42.714;23.244;2023-06-01T12:09:10;94609.84;;;23.72;42.64
11415;BME280;5763;42.714;23.244;2023-06-01T12:11:38;94611.44;;;23.67;44.11
11415;BME280;5763;42.714;23.244;2023-06-01T12:14:06;94598.56;;;23.51;46.06
11415;BME280;5763;42.714;23.244;2023-06-01T12:16:55;94601.06;;;23.23;46.42
11415;BME280;5763;42.714;23.244;2023-06-01T12:19:24;94595.06;;;23.19;47.50
11415;BME280;5763;42.714;23.244;2023-06-01T12:21:54;94582.66;;;23.02;48.65
11415;BME280;5763;42.714;23.244;2023-06-01T12:24:28;94579.38;;;22.85;49.64
11415;BME280;5763;42.714;23.244;2023-06-01T12:26:56;94571.38;;;23.07;49.84
11415;BME280;5763;42.714;23.244;2023-06-01T12:29:40;94568.41;;;23.18;49.08
11415;BME280;5763;42.714;23.244;2023-06-01T12:32:09;94563.88;;;23.15;49.19
11415;BME280;5763;42.714;23.244;2023-06-01T12:34:37;94556.50;;;23.31;48.95
11415;BME280;5763;42.714;23.244;2023-06-01T12:37:15;94556.75;;;23.59;48.85
11415;BME280;5763;42.714;23.244;2023-06-01T12:39:42;94554.38;;;23.63;48.93
11415;BME280;5763;42.714;23.244;2023-06-01T12:42:10;94553.84;;;23.51;48.85
11415;BME280;5763;42.714;23.244;2023-06-01T12:44:37;94549.44;;;23.30;49.29
11415;BME280;5763;42.714;23.244;2023-06-01T12:47:07;94544.63;;;23.12;49.37
11415;BME280;5763;42.714;23.244;2023-06-01T12:49:33;94537.03;;;22.99;48.58
11415;BME280;5763;42.714;23.244;2023-06-01T12:52:01;94535.81;;;22.95;49.98
11415;BME280;5763;42.714;23.244;2023-06-01T12:54:29;94541.41;;;22.95;49.73
11415;BME280;5763;42.714;23.244;2023-06-01T12:56:56;94540.97;;;22.91;50.72
11415;BME280;5763;42.714;23.244;2023-06-01T12:59:23;94539.47;;;22.90;52.31
11415;BME280;5763;42.714;23.244;2023-06-01T13:01:49;94541.94;;;22.93;53.06
11415;BME280;5763;42.714;23.244;2023-06-01T13:04:16;94542.47;;;22.92;53.44
11415;BME280;5763;42.714;23.244;2023-06-01T13:06:43;94533.88;;;22.90;53.30
11415;BME280;5763;42.714;23.244;2023-06-01T13:09:10;94527.56;;;23.02;52.81